createdAt,value
2022-11-02T00:02:00.036Z,28.40
2022-11-02T00:04:27.522Z,26.33
2022-11-02T00:06:54.977Z,26.15
2022-11-02T00:09:22.343Z,25.98
2022-11-02T00:11:50.204Z,25.35
2022-11-02T00:14:17.570Z,26.05
2022-11-02T00:16:44.989Z,27.35
2022-11-02T00:19:12.574Z,25.85
2022-11-02T00:21:41.196Z,25.80
2022-11-02T00:24:10.958Z,27.58
2022-11-02T00:26:39.007Z,24.95
2022-11-02T00:29:07.116Z,25.90
2022-11-02T00:31:34.522Z,27.75
2022-11-02T00:34:01.934Z,27.15
2022-11-02T00:36:29.511Z,29.48
2022-11-02T00:38:57.327Z,26.40
2022-11-02T00:41:25.246Z,25.65
2022-11-02T00:43:54.201Z,26.08
2022-11-02T00:46:22.667Z,28.13
2022-11-02T00:48:52.100Z,28.15
2022-11-02T00:51:20.050Z,27.92
2022-11-02T00:53:47.550Z,28.95
2022-11-02T00:56:15.915Z,29.25
2022-11-02T00:58:44.918Z,27.25
2022-11-02T01:01:14.019Z,26.85
2022-11-02T01:03:42.397Z,27.10
2022-11-02T01:06:15.753Z,27.35
2022-11-02T01:08:44.429Z,27.80
2022-11-02T01:11:13.797Z,27.52
2022-11-02T01:13:42.792Z,25.08
2022-11-02T01:16:11.560Z,26.60
2022-11-02T01:18:40.182Z,26.27
2022-11-02T01:21:09.487Z,26.23
2022-11-02T01:23:38.676Z,24.42
2022-11-02T01:26:09.362Z,26.23
2022-11-02T01:28:39.303Z,25.20
2022-11-02T01:31:10.264Z,26.85
2022-11-02T01:33:38.440Z,27.10
2022-11-02T01:36:07.325Z,27.85
2022-11-02T01:38:35.240Z,25.15
2022-11-02T01:41:02.824Z,24.30
2022-11-02T01:43:38.029Z,25.45
2022-11-02T01:46:19.089Z,25.92
2022-11-02T01:49:03.751Z,24.88
2022-11-02T01:51:46.924Z,26.88
2022-11-02T01:54:22.635Z,25.83
2022-11-02T01:56:56.851Z,26.30
2022-11-02T01:59:52.697Z,26.15
2022-11-02T02:02:24.880Z,23.98
2022-11-02T02:04:59.685Z,25.80
2022-11-02T02:07:30.625Z,24.70
2022-11-02T02:09:59.503Z,24.42
2022-11-02T02:12:29.447Z,25.30
2022-11-02T02:14:57.565Z,23.90
2022-11-02T02:17:25.347Z,24.52
2022-11-02T02:20:18.297Z,24.60
2022-11-02T02:23:27.477Z,26.15
2022-11-02T02:26:21.277Z,24.38
2022-11-02T02:28:56.223Z,21.10
2022-11-02T02:31:37.380Z,21.95
2022-11-02T02:34:18.120Z,22.55
2022-11-02T02:37:17.612Z,24.52
2022-11-02T02:40:16.359Z,24.33
2022-11-02T02:43:07.875Z,22.63
2022-11-02T02:45:52.918Z,23.13
2022-11-02T02:48:22.743Z,22.17
2022-11-02T02:50:53.683Z,22.45
2022-11-02T02:53:34.704Z,24.15
2022-11-02T02:56:05.721Z,20.73
2022-11-02T02:58:42.615Z,20.92
2022-11-02T03:01:14.627Z,22.98
2022-11-02T03:03:44.628Z,21.60
2022-11-02T03:06:27.875Z,21.02
2022-11-02T03:09:13.309Z,20.75
2022-11-02T03:11:56.832Z,19.90
2022-11-02T03:14:43.336Z,20.95
2022-11-02T03:17:19.156Z,20.98
2022-11-02T03:20:03.171Z,19.88
2022-11-02T03:22:49.048Z,19.13
2022-11-02T03:25:30.167Z,21.23
2022-11-02T03:28:11.115Z,20.35
2022-11-02T03:30:55.887Z,21.40
2022-11-02T03:33:33.713Z,21.00
2022-11-02T03:36:11.779Z,20.70
2022-11-02T03:38:53.075Z,20.42
2022-11-02T03:41:24.261Z,19.20
2022-11-02T03:43:57.625Z,16.77
2022-11-02T03:46:30.570Z,15.65
2022-11-02T03:49:07.562Z,15.50
2022-11-02T03:51:43.785Z,17.38
2022-11-02T03:54:22.499Z,19.13
2022-11-02T03:56:56.427Z,19.92
2022-11-02T03:59:24.448Z,19.77
2022-11-02T04:01:53.358Z,21.20
2022-11-02T04:04:24.211Z,22.33
2022-11-02T04:06:53.768Z,23.33
2022-11-02T04:09:21.567Z,22.25
2022-11-02T04:12:09.068Z,21.45
2022-11-02T04:14:40.049Z,20.52
2022-11-02T04:20:10.271Z,21.63
2022-11-02T04:22:56.817Z,24.88
2022-11-02T04:25:24.661Z,29.90
2022-11-02T04:28:08.583Z,25.55
2022-11-02T04:30:41.511Z,26.70
2022-11-02T04:33:27.582Z,25.02
2022-11-02T04:36:06.292Z,22.17
2022-11-02T04:38:40.355Z,21.13
2022-11-02T04:41:33.160Z,21.73
2022-11-02T04:44:01.185Z,22.23
2022-11-02T04:46:31.203Z,21.33
2022-11-02T04:48:59.683Z,19.23
2022-11-02T04:51:28.841Z,19.15
2022-11-02T04:53:57.782Z,18.08
2022-11-02T04:56:27.171Z,19.05
2022-11-02T04:58:58.547Z,18.90
2022-11-02T05:01:29.343Z,18.60
2022-11-02T05:03:57.771Z,19.63
2022-11-02T05:06:27.351Z,18.70
2022-11-02T05:08:56.223Z,19.63
2022-11-02T05:11:24.782Z,18.85
2022-11-02T05:13:52.971Z,20.88
2022-11-02T05:16:20.550Z,18.85
2022-11-02T05:18:50.763Z,22.45
2022-11-02T05:21:19.902Z,20.90
2022-11-02T05:23:49.148Z,21.10
2022-11-02T05:26:16.827Z,21.33
2022-11-02T05:28:47.456Z,22.38
2022-11-02T05:31:20.672Z,22.73
2022-11-02T05:33:49.888Z,23.20
2022-11-02T05:36:21.814Z,21.83
2022-11-02T05:38:58.279Z,22.38
2022-11-02T05:41:27.969Z,19.10
2022-11-02T05:43:57.089Z,22.13
2022-11-02T05:46:26.647Z,19.92
2022-11-02T05:48:54.049Z,20.15
2022-11-02T05:51:21.405Z,33.05
2022-11-02T05:53:48.917Z,23.30
2022-11-02T05:56:20.689Z,20.25
2022-11-02T06:01:24.823Z,20.23
2022-11-02T06:03:53.785Z,30.13
2022-11-02T06:06:21.472Z,20.60
2022-11-02T06:08:48.837Z,20.33
2022-11-02T06:11:16.585Z,20.08
2022-11-02T06:13:44.076Z,20.27
2022-11-02T06:16:12.559Z,20.85
2022-11-02T06:18:40.021Z,22.02
2022-11-02T06:21:07.783Z,22.35
2022-11-02T06:23:35.478Z,24.77
2022-11-02T06:26:03.745Z,24.73
2022-11-02T06:28:31.826Z,22.25
2022-11-02T06:30:59.383Z,22.35
2022-11-02T06:33:30.917Z,21.95
2022-11-02T06:35:58.387Z,22.17
2022-11-02T06:38:26.023Z,23.92
2022-11-02T06:40:55.096Z,23.33
2022-11-02T06:43:23.277Z,26.75
2022-11-02T06:45:53.729Z,25.52
2022-11-02T06:48:21.168Z,25.58
2022-11-02T06:50:48.551Z,24.55
2022-11-02T06:53:16.290Z,22.98
2022-11-02T06:55:44.109Z,21.92
2022-11-02T06:58:11.547Z,18.48
2022-11-02T07:00:38.991Z,21.15
2022-11-02T07:03:09.724Z,19.20
2022-11-02T07:05:37.697Z,20.80
2022-11-02T07:08:05.488Z,19.15
2022-11-02T07:10:35.592Z,19.15
2022-11-02T07:13:03.691Z,18.15
2022-11-02T07:15:31.447Z,17.63
2022-11-02T07:17:58.882Z,18.67
2022-11-02T07:20:26.326Z,18.05
2022-11-02T07:22:55.951Z,18.90
2022-11-02T07:25:24.253Z,18.50
2022-11-02T07:27:51.684Z,17.55
2022-11-02T07:30:19.412Z,17.13
2022-11-02T07:32:47.169Z,18.50
2022-11-02T07:35:16.020Z,15.43
2022-11-02T07:37:43.681Z,16.58
2022-11-02T07:40:14.224Z,14.25
2022-11-02T07:42:46.553Z,10.48
2022-11-02T07:45:16.671Z,9.93
2022-11-02T07:47:45.231Z,10.68
2022-11-02T07:50:14.133Z,10.30
2022-11-02T07:52:48.887Z,10.35
2022-11-02T07:55:18.979Z,9.27
2022-11-02T07:58:08.071Z,9.05
2022-11-02T08:00:37.933Z,9.50
2022-11-02T08:03:07.735Z,7.63
2022-11-02T08:05:37.776Z,7.65
2022-11-02T08:08:06.657Z,7.75
2022-11-02T08:10:37.410Z,7.10
2022-11-02T08:13:09.215Z,7.95
2022-11-02T08:15:37.503Z,11.52
2022-11-02T08:18:16.836Z,13.60
2022-11-02T08:20:45.957Z,8.85
2022-11-02T08:23:14.913Z,9.05
2022-11-02T08:25:43.330Z,8.88
2022-11-02T08:28:13.832Z,14.30
2022-11-02T08:30:41.280Z,8.95
2022-11-02T08:33:13.399Z,8.52
2022-11-02T08:35:43.459Z,10.85
2022-11-02T08:38:11.651Z,9.55
2022-11-02T08:40:39.501Z,9.07
2022-11-02T08:43:12.883Z,10.00
2022-11-02T08:46:13.264Z,13.45
2022-11-02T08:48:30.295Z,9.40
2022-11-02T08:51:00.819Z,9.77
2022-11-02T08:53:28.410Z,9.27
2022-11-02T08:55:58.751Z,10.15
2022-11-02T08:58:26.525Z,8.35
2022-11-02T09:00:54.506Z,9.05
2022-11-02T09:03:26.767Z,11.73
2022-11-02T09:06:01.996Z,10.10
2022-11-02T09:08:30.283Z,9.45
2022-11-02T09:11:00.724Z,8.52
2022-11-02T09:13:28.930Z,9.02
2022-11-02T09:15:58.623Z,9.25
2022-11-02T09:18:26.463Z,10.27
2022-11-02T09:20:54.109Z,12.88
2022-11-02T09:23:22.502Z,12.48
2022-11-02T09:25:50.486Z,10.90
2022-11-02T09:28:18.096Z,11.27
2022-11-02T09:30:45.755Z,13.75
2022-11-02T09:33:13.704Z,13.07
2022-11-02T09:35:43.902Z,14.68
2022-11-02T09:38:11.982Z,13.63
2022-11-02T09:40:43.518Z,14.73
2022-11-02T09:43:17.229Z,17.63
2022-11-02T09:45:53.492Z,17.50
2022-11-02T09:48:29.191Z,17.98
2022-11-02T09:51:09.893Z,20.23
2022-11-02T09:53:44.995Z,20.60
2022-11-02T09:56:16.399Z,21.58
2022-11-02T09:58:48.473Z,19.92
2022-11-02T10:01:28.992Z,22.00
2022-11-02T10:04:24.630Z,23.58
2022-11-02T10:07:16.972Z,23.13
2022-11-02T10:09:47.111Z,25.25
2022-11-02T10:12:30.746Z,25.17
2022-11-02T10:15:20.692Z,26.60
2022-11-02T10:17:53.957Z,25.80
2022-11-02T10:20:39.020Z,26.08
2022-11-02T10:23:09.370Z,27.25
2022-11-02T10:25:38.220Z,26.50
2022-11-02T10:28:14.448Z,27.67
2022-11-02T10:30:44.022Z,25.13
2022-11-02T10:33:17.545Z,26.02
2022-11-02T10:36:23.428Z,25.45
2022-11-02T10:39:00.657Z,24.33
2022-11-02T10:41:52.291Z,23.10
2022-11-02T10:44:34.656Z,24.13
2022-11-02T10:47:04.928Z,23.40
2022-11-02T10:49:54.897Z,23.48
2022-11-02T10:52:22.508Z,23.85
2022-11-02T10:54:53.301Z,24.02
2022-11-02T10:57:24.387Z,23.38
2022-11-02T11:00:29.345Z,25.30
2022-11-02T11:03:07.456Z,23.77
2022-11-02T11:05:38.242Z,24.08
2022-11-02T11:08:06.336Z,24.58
2022-11-02T11:10:38.220Z,22.60
2022-11-02T11:13:07.769Z,21.67
2022-11-02T11:15:51.454Z,20.23
2022-11-02T11:21:09.206Z,22.58
2022-11-02T11:23:36.566Z,21.42
2022-11-02T11:26:08.424Z,24.20
2022-11-02T11:28:52.233Z,23.42
2022-11-02T11:31:20.281Z,23.13
2022-11-02T11:33:58.537Z,23.73
2022-11-02T11:36:36.478Z,23.83
2022-11-02T11:39:29.545Z,25.00
2022-11-02T11:41:58.171Z,24.00
2022-11-02T11:44:26.812Z,23.48
2022-11-02T11:46:59.189Z,24.00
2022-11-02T11:52:31.240Z,24.85
2022-11-02T11:55:02.604Z,26.88
2022-11-02T11:57:32.557Z,25.02
2022-11-02T12:00:04.984Z,29.15
2022-11-02T12:02:40.977Z,26.35
2022-11-02T12:05:17.250Z,26.38
2022-11-02T12:07:59.559Z,28.90
2022-11-02T12:10:45.527Z,28.83
2022-11-02T12:13:35.873Z,26.90
2022-11-02T12:16:23.639Z,28.85
2022-11-02T12:19:31.222Z,28.85
2022-11-02T12:22:38.624Z,29.75
2022-11-02T12:25:30.147Z,27.33
2022-11-02T12:28:23.181Z,29.45
2022-11-02T12:31:05.143Z,31.23
2022-11-02T12:33:41.386Z,29.63
2022-11-02T12:36:33.957Z,31.92
2022-11-02T12:39:42.759Z,30.48
2022-11-02T12:42:27.717Z,33.33
2022-11-02T12:45:19.720Z,32.22
2022-11-02T12:47:55.601Z,31.35
2022-11-02T12:50:41.513Z,29.00
2022-11-02T12:53:17.515Z,29.58
2022-11-02T12:55:49.114Z,30.17
2022-11-02T12:58:28.709Z,30.50
2022-11-02T13:01:02.682Z,31.67
2022-11-02T13:03:58.756Z,28.88
2022-11-02T13:06:39.349Z,29.48
2022-11-02T13:09:47.675Z,29.45
2022-11-02T13:12:24.353Z,29.38
2022-11-02T13:14:55.487Z,28.92
2022-11-02T13:17:28.835Z,29.25
2022-11-02T13:20:00.899Z,28.40
2022-11-02T13:22:34.118Z,30.90
2022-11-02T13:28:07.582Z,26.75
2022-11-02T13:33:11.452Z,29.52
2022-11-02T13:35:43.525Z,28.45
2022-11-02T13:38:22.939Z,30.73
2022-11-02T13:41:10.551Z,30.98
2022-11-02T13:43:56.742Z,30.77
2022-11-02T13:46:30.937Z,29.52
2022-11-02T13:49:23.812Z,28.65
2022-11-02T13:51:59.551Z,27.65
2022-11-02T13:54:33.849Z,27.00
2022-11-02T13:57:01.919Z,27.23
2022-11-02T13:59:42.197Z,26.02
2022-11-02T14:02:17.673Z,26.40
2022-11-02T14:04:46.138Z,22.20
2022-11-02T14:07:34.488Z,23.02
2022-11-02T14:10:16.774Z,21.17
2022-11-02T14:12:49.000Z,22.23
2022-11-02T14:15:16.364Z,21.38
2022-11-02T14:18:04.839Z,22.00
2022-11-02T14:20:49.284Z,20.67
2022-11-02T14:23:25.743Z,20.95
2022-11-02T14:26:00.441Z,20.48
2022-11-02T14:28:32.869Z,19.23
2022-11-02T14:31:22.830Z,19.83
2022-11-02T14:34:08.941Z,20.60
2022-11-02T14:37:07.893Z,21.98
2022-11-02T14:40:06.085Z,21.90
2022-11-02T14:42:51.518Z,22.23
2022-11-02T14:45:45.385Z,21.08
2022-11-02T14:48:16.885Z,21.67
2022-11-02T14:51:00.793Z,22.70
2022-11-02T14:53:31.761Z,21.90
2022-11-02T14:55:59.215Z,20.80
2022-11-02T14:58:40.249Z,22.40
2022-11-02T15:01:14.465Z,22.10
2022-11-02T15:03:43.125Z,22.92
2022-11-02T15:06:28.233Z,22.63
2022-11-02T15:09:01.030Z,23.02
2022-11-02T15:12:02.595Z,22.90
2022-11-02T15:14:36.105Z,23.13
2022-11-02T15:17:26.303Z,24.73
2022-11-02T15:20:16.589Z,19.05
2022-11-02T15:22:55.178Z,19.83
2022-11-02T15:25:31.785Z,19.77
2022-11-02T15:28:14.523Z,19.35
2022-11-02T15:30:49.063Z,19.27
2022-11-02T15:33:39.212Z,19.05
2022-11-02T15:36:15.616Z,19.55
2022-11-02T15:38:48.509Z,18.48
2022-11-02T15:41:35.617Z,19.15
2022-11-02T15:44:08.836Z,19.85
2022-11-02T15:46:57.897Z,21.67
2022-11-02T15:50:02.685Z,19.83
2022-11-02T15:52:35.960Z,20.92
2022-11-02T15:55:24.282Z,21.08
2022-11-02T15:58:00.462Z,21.08
2022-11-02T16:00:30.777Z,21.70
2022-11-02T16:03:04.804Z,21.98
2022-11-02T16:05:38.362Z,23.77
2022-11-02T16:08:22.959Z,24.63
2022-11-02T16:11:02.658Z,24.42
2022-11-02T16:13:48.674Z,26.95
2022-11-02T16:16:22.329Z,28.20
2022-11-02T16:18:52.319Z,28.45
2022-11-02T16:21:24.334Z,30.48
2022-11-02T16:23:56.003Z,30.02
2022-11-02T16:26:29.734Z,27.42
2022-11-02T16:28:59.827Z,28.50
2022-11-02T16:31:32.056Z,28.15
2022-11-02T16:34:03.656Z,29.63
2022-11-02T16:36:35.658Z,29.60
2022-11-02T16:39:36.447Z,28.33
2022-11-02T16:42:21.883Z,26.65
2022-11-02T16:44:58.452Z,26.33
2022-11-02T16:47:38.554Z,25.08
2022-11-02T16:50:23.007Z,24.55
2022-11-02T16:52:55.181Z,23.83
2022-11-02T16:55:44.381Z,24.70
2022-11-02T16:58:23.630Z,25.45
2022-11-02T17:01:03.371Z,25.85
2022-11-02T17:03:32.452Z,24.55
2022-11-02T17:06:04.253Z,28.23
2022-11-02T17:08:36.016Z,28.13
2022-11-02T17:11:05.603Z,28.02
2022-11-02T17:13:38.201Z,29.92
2022-11-02T17:16:10.563Z,28.67
2022-11-02T17:21:14.136Z,26.58
2022-11-02T17:23:46.222Z,27.23
2022-11-02T17:26:22.746Z,27.52
2022-11-02T17:28:53.083Z,25.85
2022-11-02T17:31:27.503Z,29.63
2022-11-02T17:33:56.715Z,27.63
2022-11-02T17:36:26.912Z,27.60
2022-11-02T17:38:55.686Z,29.05
2022-11-02T17:41:55.599Z,27.90
2022-11-02T17:44:23.857Z,26.45
2022-11-02T17:46:51.561Z,29.30
2022-11-02T17:49:19.034Z,28.10
2022-11-02T17:51:47.489Z,29.38
2022-11-02T17:54:15.339Z,41.08
2022-11-02T17:56:42.688Z,28.90
2022-11-02T17:59:10.480Z,29.67
2022-11-02T18:01:38.127Z,29.58
2022-11-02T18:04:05.785Z,37.30
2022-11-02T18:06:33.253Z,40.35
2022-11-02T18:09:14.432Z,34.42
2022-11-02T18:11:41.917Z,34.08
2022-11-02T18:14:14.513Z,39.45
2022-11-02T18:16:42.109Z,36.70
2022-11-02T18:19:09.567Z,36.65
2022-11-02T18:21:36.951Z,38.38
2022-11-02T18:24:04.433Z,38.90
2022-11-02T18:26:31.825Z,34.85
2022-11-02T18:28:59.213Z,34.97
2022-11-02T18:31:26.637Z,44.30
2022-11-02T18:33:54.085Z,83.03
2022-11-02T18:36:21.539Z,44.63
2022-11-02T18:38:48.968Z,34.25
2022-11-02T18:41:29.723Z,33.78
2022-11-02T18:44:15.156Z,32.40
2022-11-02T18:46:43.926Z,33.70
2022-11-02T18:49:11.414Z,43.13
2022-11-02T18:51:43.061Z,50.95
2022-11-02T18:54:10.829Z,43.65
2022-11-02T18:56:38.365Z,37.53
2022-11-02T18:59:05.840Z,51.78
2022-11-02T19:01:33.552Z,42.03
2022-11-02T19:04:01.673Z,104.93
2022-11-02T19:06:49.601Z,64.43
2022-11-02T19:09:21.247Z,50.78
2022-11-02T19:11:51.707Z,34.72
2022-11-02T19:14:20.609Z,32.22
2022-11-02T19:16:48.094Z,30.92
2022-11-02T19:19:15.657Z,32.13
2022-11-02T19:21:43.202Z,33.65
2022-11-02T19:24:10.838Z,35.45
2022-11-02T19:26:38.848Z,36.40
2022-11-02T19:29:06.909Z,36.35
2022-11-02T19:31:35.486Z,34.65
2022-11-02T19:34:03.216Z,31.17
2022-11-02T19:36:31.503Z,30.02
2022-11-02T19:39:00.200Z,29.75
2022-11-02T19:41:27.671Z,40.45
2022-11-02T19:43:55.352Z,41.05
2022-11-02T19:46:23.242Z,38.92
2022-11-02T19:48:50.997Z,40.95
2022-11-02T19:51:20.857Z,39.70
2022-11-02T19:53:51.150Z,38.20
2022-11-02T19:56:19.896Z,36.33
2022-11-02T19:58:49.543Z,32.97
2022-11-02T20:01:21.123Z,37.70
2022-11-02T20:03:49.328Z,34.55
2022-11-02T20:06:20.380Z,31.73
2022-11-02T20:08:54.945Z,32.33
2022-11-02T20:11:24.667Z,30.52
2022-11-02T20:13:52.147Z,57.03
2022-11-02T20:16:20.259Z,34.78
2022-11-02T20:18:49.785Z,30.33
2022-11-02T20:21:23.045Z,31.00
2022-11-02T20:23:52.483Z,31.10
2022-11-02T20:26:22.261Z,32.22
2022-11-02T20:28:50.543Z,31.40
2022-11-02T20:31:26.456Z,32.55
2022-11-02T20:33:53.908Z,32.72
2022-11-02T20:36:21.752Z,33.33
2022-11-02T20:38:51.896Z,31.85
2022-11-02T20:41:21.370Z,34.63
2022-11-02T20:43:50.208Z,30.48
2022-11-02T20:46:36.965Z,34.28
2022-11-02T20:49:19.819Z,54.13
2022-11-02T20:51:53.174Z,36.20
2022-11-02T20:54:22.253Z,30.67
2022-11-02T20:56:50.312Z,29.55
2022-11-02T20:59:18.229Z,30.52
2022-11-02T21:01:46.063Z,34.78
2022-11-02T21:04:19.781Z,40.45
2022-11-02T21:06:51.639Z,37.25
2022-11-02T21:09:19.726Z,33.33
2022-11-02T21:12:05.668Z,30.13
2022-11-02T21:14:33.047Z,30.95
2022-11-02T21:17:02.677Z,31.13
2022-11-02T21:19:30.161Z,33.13
2022-11-02T21:21:59.935Z,34.40
2022-11-02T21:24:28.880Z,31.95
2022-11-02T21:26:56.552Z,34.58
2022-11-02T21:29:24.205Z,35.28
2022-11-02T21:31:51.603Z,35.22
2022-11-02T21:34:19.017Z,86.00
2022-11-02T21:36:47.548Z,41.13
2022-11-02T21:39:15.094Z,34.58
2022-11-02T21:41:42.693Z,34.42
2022-11-02T21:44:11.625Z,36.25
2022-11-02T21:46:39.073Z,36.85
2022-11-02T21:49:06.601Z,34.28
2022-11-02T21:51:34.833Z,36.53
2022-11-02T21:54:02.238Z,38.28
2022-11-02T21:56:31.794Z,39.38
2022-11-02T21:58:59.265Z,35.05
2022-11-02T22:01:44.334Z,35.22
2022-11-02T22:04:29.024Z,34.85
2022-11-02T22:06:57.084Z,35.38
2022-11-02T22:09:25.223Z,31.42
2022-11-02T22:12:11.552Z,34.25
2022-11-02T22:14:39.619Z,32.95
2022-11-02T22:17:16.567Z,34.53
2022-11-02T22:19:55.708Z,34.33
2022-11-02T22:22:23.928Z,33.83
2022-11-02T22:24:51.310Z,33.33
2022-11-02T22:27:18.687Z,33.92
2022-11-02T22:29:46.106Z,35.78
2022-11-02T22:32:14.659Z,34.45
2022-11-02T22:34:43.707Z,34.72
2022-11-02T22:37:29.865Z,36.88
2022-11-02T22:39:57.229Z,36.30
2022-11-02T22:42:24.633Z,35.83
2022-11-02T22:44:55.048Z,35.83
2022-11-02T22:47:22.476Z,36.90
2022-11-02T22:49:49.960Z,36.67
2022-11-02T22:52:17.340Z,38.25
2022-11-02T22:54:44.747Z,40.40
2022-11-02T22:57:12.160Z,38.70
2022-11-02T22:59:39.523Z,39.28
2022-11-02T23:02:06.909Z,39.05
2022-11-02T23:04:34.358Z,42.97
2022-11-02T23:07:01.701Z,41.08
2022-11-02T23:09:29.067Z,41.22
2022-11-02T23:11:56.420Z,39.25
2022-11-02T23:14:23.774Z,38.60
2022-11-02T23:16:51.133Z,37.85
2022-11-02T23:19:27.873Z,40.00
2022-11-02T23:22:20.208Z,41.85
2022-11-02T23:25:11.925Z,38.33
2022-11-02T23:28:01.011Z,39.58
2022-11-02T23:30:52.825Z,39.60
2022-11-02T23:33:22.655Z,43.72
2022-11-02T23:36:08.782Z,43.67
2022-11-02T23:38:54.574Z,41.80
2022-11-02T23:41:22.028Z,40.90
2022-11-02T23:43:49.455Z,42.38
2022-11-02T23:46:17.799Z,43.15
2022-11-02T23:48:48.253Z,42.42
2022-11-02T23:51:37.152Z,41.42
2022-11-02T23:54:23.136Z,40.50
2022-11-02T23:56:50.531Z,39.40
2022-11-02T23:59:18.570Z,38.17
